createdAt,value
2018-11-02T00:00:31.929Z,12.20
2018-11-02T00:03:03.411Z,11.95
2018-11-02T00:05:39.806Z,12.07
2018-11-02T00:08:16.909Z,12.33
2018-11-02T00:11:04.704Z,11.07
2018-11-02T00:13:36.688Z,10.17
2018-11-02T00:16:08.960Z,10.40
2018-11-02T00:18:40.895Z,11.07
2018-11-02T00:21:13.471Z,10.35
2018-11-02T00:23:45.483Z,11.43
2018-11-02T00:26:17.589Z,10.75
2018-11-02T00:28:49.478Z,10.88
2018-11-02T00:31:22.082Z,10.25
2018-11-02T00:33:54.598Z,11.63
2018-11-02T00:36:26.316Z,10.97
2018-11-02T00:38:57.958Z,11.28
2018-11-02T00:41:29.676Z,10.40
2018-11-02T00:44:01.658Z,11.30
2018-11-02T00:49:09.828Z,10.73
2018-11-02T00:51:41.764Z,10.67
2018-11-02T00:56:50.281Z,11.03
2018-11-02T00:59:22.038Z,10.58
2018-11-02T01:01:54.779Z,9.63
2018-11-02T01:04:26.679Z,9.97
2018-11-02T01:06:58.548Z,10.15
2018-11-02T01:09:30.934Z,10.33
2018-11-02T01:12:03.133Z,9.53
2018-11-02T01:14:35.331Z,9.73
2018-11-02T01:17:07.617Z,9.65
2018-11-02T01:19:39.915Z,9.77
2018-11-02T01:22:11.888Z,9.47
2018-11-02T01:24:43.724Z,10.10
2018-11-02T01:27:15.578Z,9.25
2018-11-02T01:29:47.370Z,9.58
2018-11-02T01:32:20.083Z,9.65
2018-11-02T01:34:52.292Z,9.18
2018-11-02T01:37:24.027Z,8.95
2018-11-02T01:39:56.080Z,9.63
2018-11-02T01:42:28.034Z,9.98
2018-11-02T01:44:59.911Z,8.73
2018-11-02T01:47:32.006Z,9.27
2018-11-02T01:50:03.692Z,9.13
2018-11-02T01:52:35.712Z,9.47
2018-11-02T01:55:08.673Z,9.80
2018-11-02T01:57:40.958Z,9.53
2018-11-02T02:00:13.153Z,9.80
2018-11-02T02:02:45.268Z,9.33
2018-11-02T02:05:17.487Z,9.70
2018-11-02T02:07:49.236Z,9.53
2018-11-02T02:10:21.654Z,9.48
2018-11-02T02:12:53.448Z,9.28
2018-11-02T02:15:25.878Z,9.10
2018-11-02T02:17:57.752Z,8.23
2018-11-02T02:20:29.655Z,8.00
2018-11-02T02:23:01.807Z,9.35
2018-11-02T02:25:34.099Z,9.37
2018-11-02T02:28:07.511Z,9.18
2018-11-02T02:30:39.649Z,8.50
2018-11-02T02:33:12.198Z,8.90
2018-11-02T02:38:24.197Z,8.83
2018-11-02T02:40:55.965Z,8.00
2018-11-02T02:43:28.045Z,8.13
2018-11-02T02:45:59.956Z,7.90
2018-11-02T02:48:32.650Z,8.98
2018-11-02T02:51:04.480Z,8.20
2018-11-02T02:53:36.473Z,8.60
2018-11-02T02:56:08.536Z,9.10
2018-11-02T02:58:40.217Z,8.20
2018-11-02T03:01:12.049Z,7.97
2018-11-02T03:03:44.908Z,8.70
2018-11-02T03:08:52.907Z,9.10
2018-11-02T03:11:32.183Z,7.53
2018-11-02T03:14:04.801Z,7.57
2018-11-02T03:16:36.759Z,7.27
2018-11-02T03:19:08.811Z,7.47
2018-11-02T03:21:41.025Z,7.63
2018-11-02T03:24:14.340Z,7.85
2018-11-02T03:26:46.325Z,8.03
2018-11-02T03:29:18.028Z,8.88
2018-11-02T03:31:50.228Z,8.53
2018-11-02T03:34:22.232Z,8.25
2018-11-02T03:36:54.616Z,7.80
2018-11-02T03:39:26.499Z,8.00
2018-11-02T03:41:58.605Z,7.97
2018-11-02T03:44:30.430Z,9.90
2018-11-02T03:47:02.383Z,10.23
2018-11-02T03:49:38.730Z,10.73
2018-11-02T03:52:10.757Z,9.17
2018-11-02T03:54:42.917Z,8.70
2018-11-02T03:57:14.801Z,9.13
2018-11-02T03:59:47.107Z,9.93
2018-11-02T04:02:19.445Z,11.10
2018-11-02T04:04:51.618Z,10.60
2018-11-02T04:07:23.569Z,11.03
2018-11-02T04:09:55.886Z,10.90
2018-11-02T04:12:28.044Z,11.10
2018-11-02T04:15:00.096Z,10.95
2018-11-02T04:17:32.151Z,11.23
2018-11-02T04:20:04.877Z,11.43
2018-11-02T04:22:36.573Z,9.85
2018-11-02T04:25:08.876Z,10.93
2018-11-02T04:27:45.525Z,9.68
2018-11-02T04:30:18.022Z,10.37
2018-11-02T04:32:50.137Z,10.30
2018-11-02T04:35:21.966Z,10.70
2018-11-02T04:40:30.419Z,9.80
2018-11-02T04:43:02.359Z,10.13
2018-11-02T04:45:40.162Z,10.87
2018-11-02T04:48:12.948Z,9.53
2018-11-02T04:50:45.089Z,9.70
2018-11-02T04:53:17.384Z,9.57
2018-11-02T04:55:49.334Z,9.33
2018-11-02T04:58:21.231Z,10.30
2018-11-02T05:00:53.277Z,9.50
2018-11-02T05:03:25.083Z,9.67
2018-11-02T05:05:57.871Z,10.43
2018-11-02T05:08:30.984Z,9.07
2018-11-02T05:11:02.949Z,9.95
2018-11-02T05:13:35.088Z,9.50
2018-11-02T05:16:07.521Z,9.48
2018-11-02T05:18:39.861Z,9.47
2018-11-02T05:21:12.105Z,9.66
2018-11-02T05:23:44.473Z,9.18
2018-11-02T05:26:16.741Z,10.85
2018-11-02T05:28:48.647Z,10.10
2018-11-02T05:31:20.464Z,9.58
2018-11-02T05:33:52.765Z,9.78
2018-11-02T05:36:25.074Z,11.53
2018-11-02T05:38:57.345Z,12.45
2018-11-02T05:41:29.551Z,12.97
2018-11-02T05:44:02.099Z,13.20
2018-11-02T05:46:34.265Z,14.70
2018-11-02T05:49:06.700Z,13.25
2018-11-02T05:54:16.599Z,14.60
2018-11-02T05:56:48.488Z,17.17
2018-11-02T05:59:21.861Z,17.80
2018-11-02T06:01:53.563Z,18.37
2018-11-02T06:04:26.021Z,17.30
2018-11-02T06:06:58.074Z,20.75
2018-11-02T06:09:31.506Z,18.70
2018-11-02T06:12:04.200Z,19.87
2018-11-02T06:14:36.889Z,21.57
2018-11-02T06:17:08.640Z,19.47
2018-11-02T06:19:40.775Z,15.07
2018-11-02T06:22:13.162Z,12.30
2018-11-02T06:27:22.381Z,14.13
2018-11-02T06:29:54.326Z,15.37
2018-11-02T06:32:26.817Z,15.17
2018-11-02T06:34:58.815Z,16.25
2018-11-02T06:37:30.783Z,18.07
2018-11-02T06:40:02.796Z,16.42
2018-11-02T06:42:34.449Z,15.55
2018-11-02T06:45:07.791Z,14.55
2018-11-02T06:47:40.050Z,13.87
2018-11-02T06:50:12.654Z,13.57
2018-11-02T06:52:44.479Z,12.03
2018-11-02T06:55:16.707Z,13.28
2018-11-02T07:00:25.186Z,11.53
2018-11-02T07:02:57.140Z,12.07
2018-11-02T07:05:32.562Z,12.75
2018-11-02T07:08:05.232Z,11.33
2018-11-02T07:10:37.448Z,11.57
2018-11-02T07:13:10.283Z,11.30
2018-11-02T07:15:42.243Z,10.87
2018-11-02T07:18:14.351Z,11.78
2018-11-02T07:20:46.715Z,11.45
2018-11-02T07:23:19.078Z,12.30
2018-11-02T07:25:51.768Z,11.95
2018-11-02T07:28:24.166Z,11.67
2018-11-02T07:30:56.590Z,10.80
2018-11-02T07:33:28.866Z,11.40
2018-11-02T07:36:03.044Z,12.90
2018-11-02T07:38:35.299Z,14.40
2018-11-02T07:41:13.540Z,14.18
2018-11-02T07:46:21.803Z,13.97
2018-11-02T07:48:54.116Z,13.93
2018-11-02T07:51:27.172Z,13.40
2018-11-02T07:53:59.487Z,13.13
2018-11-02T07:56:32.227Z,13.13
2018-11-02T07:59:04.349Z,12.50
2018-11-02T08:01:36.808Z,13.30
2018-11-02T08:04:09.059Z,12.80
2018-11-02T08:06:41.343Z,13.58
2018-11-02T08:11:49.896Z,12.70
2018-11-02T08:16:58.447Z,13.33
2018-11-02T08:19:30.855Z,12.03
2018-11-02T08:22:03.227Z,11.87
2018-11-02T08:24:35.772Z,10.90
2018-11-02T08:27:08.059Z,12.07
2018-11-02T08:29:40.298Z,11.35
2018-11-02T08:32:12.838Z,12.68
2018-11-02T08:37:21.367Z,12.67
2018-11-02T08:39:57.693Z,12.47
2018-11-02T08:42:30.307Z,12.80
2018-11-02T08:45:02.474Z,11.38
2018-11-02T08:47:35.140Z,11.20
2018-11-02T08:50:08.558Z,11.78
2018-11-02T08:52:40.847Z,13.07
2018-11-02T08:57:49.366Z,10.83
2018-11-02T09:00:21.819Z,12.17
2018-11-02T09:02:54.147Z,10.77
2018-11-02T09:05:26.248Z,12.43
2018-11-02T09:07:59.252Z,10.60
2018-11-02T09:10:31.268Z,10.75
2018-11-02T09:13:03.123Z,11.40
2018-11-02T09:15:35.018Z,10.70
2018-11-02T09:18:06.746Z,12.15
2018-11-02T09:20:39.176Z,11.47
2018-11-02T09:23:11.983Z,11.33
2018-11-02T09:28:19.773Z,10.57
2018-11-02T09:30:54.371Z,11.07
2018-11-02T09:33:26.288Z,11.17
2018-11-02T09:35:58.308Z,10.82
2018-11-02T09:38:30.264Z,10.37
2018-11-02T09:41:02.404Z,10.55
2018-11-02T09:43:34.083Z,10.90
2018-11-02T09:46:07.265Z,11.10
2018-11-02T09:48:39.603Z,10.50
2018-11-02T09:51:11.218Z,10.23
2018-11-02T09:53:43.130Z,9.95
2018-11-02T09:58:51.127Z,9.90
2018-11-02T10:01:24.240Z,9.10
2018-11-02T10:06:32.470Z,8.63
2018-11-02T10:09:04.671Z,8.80
2018-11-02T10:11:36.645Z,9.37
2018-11-02T10:14:08.724Z,9.98
2018-11-02T10:16:41.148Z,9.13
2018-11-02T10:19:12.930Z,8.95
2018-11-02T10:24:21.039Z,9.70
2018-11-02T10:26:53.755Z,9.15
2018-11-02T10:29:25.743Z,8.97
2018-11-02T10:31:57.741Z,8.07
2018-11-02T10:34:30.367Z,8.87
2018-11-02T10:37:03.006Z,8.08
2018-11-02T10:42:12.114Z,8.10
2018-11-02T10:44:45.952Z,7.63
2018-11-02T10:47:18.011Z,8.33
2018-11-02T10:49:49.639Z,7.73
2018-11-02T10:52:21.420Z,7.95
2018-11-02T10:54:53.973Z,6.92
2018-11-02T10:57:26.274Z,8.37
2018-11-02T10:59:58.033Z,6.57
2018-11-02T11:02:34.948Z,7.50
2018-11-02T11:05:09.349Z,7.25
2018-11-02T11:07:41.899Z,6.80
2018-11-02T11:10:13.721Z,7.45
2018-11-02T11:12:45.892Z,7.60
2018-11-02T11:15:20.837Z,7.55
2018-11-02T11:17:52.887Z,6.87
2018-11-02T11:20:24.879Z,6.77
2018-11-02T11:22:57.656Z,6.78
2018-11-02T11:25:30.342Z,7.47
2018-11-02T11:28:02.369Z,6.53
2018-11-02T11:30:34.373Z,6.43
2018-11-02T11:33:06.824Z,6.83
2018-11-02T11:35:38.835Z,6.83
2018-11-02T11:38:10.916Z,7.33
2018-11-02T11:40:42.793Z,6.90
2018-11-02T11:43:14.772Z,6.73
2018-11-02T11:45:46.431Z,6.97
2018-11-02T11:48:18.456Z,6.40
2018-11-02T11:50:51.049Z,6.92
2018-11-02T11:53:23.078Z,7.25
2018-11-02T11:55:55.132Z,6.70
2018-11-02T11:58:27.148Z,7.03
2018-11-02T12:00:58.980Z,6.70
2018-11-02T12:03:30.856Z,6.25
2018-11-02T12:06:02.638Z,6.17
2018-11-02T12:08:35.414Z,6.03
2018-11-02T12:11:07.550Z,6.03
2018-11-02T12:13:39.440Z,6.55
2018-11-02T12:16:11.284Z,6.05
2018-11-02T12:21:22.137Z,6.40
2018-11-02T12:23:54.713Z,5.80
2018-11-02T12:26:27.496Z,7.08
2018-11-02T12:28:59.910Z,6.27
2018-11-02T12:31:31.592Z,6.95
2018-11-02T12:34:04.625Z,6.35
2018-11-02T12:39:13.495Z,6.73
2018-11-02T12:44:21.572Z,6.53
2018-11-02T12:46:55.221Z,6.20
2018-11-02T12:49:28.254Z,6.12
2018-11-02T12:51:59.971Z,6.17
2018-11-02T12:54:32.467Z,6.45
2018-11-02T12:57:04.303Z,7.00
2018-11-02T12:59:36.034Z,6.67
2018-11-02T13:02:08.391Z,7.00
2018-11-02T13:04:39.983Z,6.75
2018-11-02T13:07:11.847Z,7.02
2018-11-02T13:09:43.640Z,6.55
2018-11-02T13:14:52.676Z,7.07
2018-11-02T13:17:24.552Z,7.30
2018-11-02T13:19:56.394Z,7.22
2018-11-02T13:22:28.623Z,6.85
2018-11-02T13:25:00.519Z,7.87
2018-11-02T13:27:33.433Z,8.00
2018-11-02T13:30:06.034Z,7.70
2018-11-02T13:32:38.142Z,7.47
2018-11-02T13:35:14.469Z,7.90
2018-11-02T13:37:46.567Z,7.47
2018-11-02T13:40:19.231Z,7.60
2018-11-02T13:42:51.734Z,7.70
2018-11-02T13:45:23.692Z,9.18
2018-11-02T13:47:55.856Z,8.17
2018-11-02T13:50:27.379Z,8.57
2018-11-02T13:52:59.362Z,9.50
2018-11-02T13:55:31.507Z,10.57
2018-11-02T13:58:03.228Z,12.00
2018-11-02T14:00:35.997Z,11.67
2018-11-02T14:03:08.047Z,12.35
2018-11-02T14:05:40.085Z,13.03
2018-11-02T14:08:11.915Z,12.07
2018-11-02T14:10:43.976Z,11.87
2018-11-02T14:13:16.108Z,11.67
2018-11-02T14:15:48.125Z,11.88
2018-11-02T14:18:19.883Z,10.05
2018-11-02T14:20:52.001Z,11.05
2018-11-02T14:23:24.025Z,11.17
2018-11-02T14:25:56.837Z,11.33
2018-11-02T14:28:28.904Z,14.53
2018-11-02T14:31:00.671Z,17.23
2018-11-02T14:33:32.508Z,18.00
2018-11-02T14:36:04.974Z,17.77
2018-11-02T14:38:36.787Z,14.10
2018-11-02T14:41:08.582Z,14.70
2018-11-02T14:43:40.368Z,17.83
2018-11-02T14:46:12.457Z,17.25
2018-11-02T14:48:44.781Z,18.70
2018-11-02T14:51:16.705Z,15.57
2018-11-02T14:53:48.943Z,16.32
2018-11-02T14:56:20.520Z,16.60
2018-11-02T14:58:52.084Z,17.40
2018-11-02T15:01:23.994Z,19.77
2018-11-02T15:03:55.500Z,17.42
2018-11-02T15:06:27.695Z,18.00
2018-11-02T15:08:59.646Z,19.27
2018-11-02T15:11:31.985Z,19.70
2018-11-02T15:14:04.332Z,19.52
2018-11-02T15:16:36.066Z,19.13
2018-11-02T15:19:08.165Z,17.92
2018-11-02T15:21:39.765Z,17.52
2018-11-02T15:24:11.691Z,16.60
2018-11-02T15:26:43.577Z,14.80
2018-11-02T15:29:15.364Z,16.07
2018-11-02T15:31:46.949Z,20.90
2018-11-02T15:34:18.849Z,27.85
2018-11-02T15:36:50.612Z,24.30
2018-11-02T15:39:22.724Z,19.82
2018-11-02T15:44:31.321Z,16.60
2018-11-02T15:47:02.839Z,16.00
2018-11-02T15:49:42.899Z,15.87
2018-11-02T15:52:15.716Z,16.95
2018-11-02T15:54:47.544Z,16.83
2018-11-02T15:57:19.361Z,25.10
2018-11-02T15:59:50.935Z,24.18
2018-11-02T16:02:22.579Z,21.57
2018-11-02T16:04:54.501Z,22.83
2018-11-02T16:07:26.175Z,22.57
2018-11-02T16:09:58.186Z,26.57
2018-11-02T16:12:30.366Z,25.27
2018-11-02T16:15:02.067Z,28.15
2018-11-02T16:17:33.559Z,28.70
2018-11-02T16:20:12.589Z,30.37
2018-11-02T16:22:44.709Z,29.83
2018-11-02T16:25:17.486Z,32.95
2018-11-02T16:27:49.909Z,34.07
2018-11-02T16:30:22.083Z,32.90
2018-11-02T16:32:54.180Z,31.27
2018-11-02T16:35:26.622Z,31.37
2018-11-02T16:37:59.875Z,32.93
2018-11-02T16:40:31.611Z,31.52
2018-11-02T16:43:06.453Z,31.52
2018-11-02T16:45:38.747Z,32.33
2018-11-02T16:48:12.591Z,35.83
2018-11-02T16:50:44.348Z,37.55
2018-11-02T16:53:16.521Z,36.03
2018-11-02T16:55:48.733Z,40.60
2018-11-02T16:58:20.368Z,39.95
2018-11-02T17:00:52.531Z,34.60
2018-11-02T17:03:24.460Z,33.08
2018-11-02T17:06:01.950Z,32.95
2018-11-02T17:08:39.143Z,33.30
2018-11-02T17:11:16.459Z,28.35
2018-11-02T17:13:54.465Z,29.63
2018-11-02T17:16:32.361Z,28.98
2018-11-02T17:19:14.140Z,27.02
2018-11-02T17:21:51.538Z,27.37
2018-11-02T17:24:28.564Z,26.63
2018-11-02T17:27:06.553Z,27.42
2018-11-02T17:29:43.483Z,27.73
2018-11-02T17:32:20.842Z,28.87
2018-11-02T17:34:58.023Z,28.15
2018-11-02T17:37:35.462Z,27.73
2018-11-02T17:40:14.350Z,28.42
2018-11-02T17:42:51.438Z,31.17
2018-11-02T17:45:28.642Z,32.00
2018-11-02T17:48:07.041Z,31.37
2018-11-02T17:50:43.963Z,28.85
2018-11-02T17:53:21.757Z,30.33
2018-11-02T17:55:59.038Z,30.67
2018-11-02T17:58:36.211Z,31.63
2018-11-02T18:03:50.209Z,32.47
2018-11-02T18:06:28.439Z,30.27
2018-11-02T18:09:10.256Z,31.73
2018-11-02T18:11:47.608Z,34.45
2018-11-02T18:14:24.457Z,33.53
2018-11-02T18:17:02.210Z,33.65
2018-11-02T18:19:39.375Z,31.47
2018-11-02T18:22:16.796Z,30.65
2018-11-02T18:24:57.973Z,32.90
2018-11-02T18:27:39.443Z,32.78
2018-11-02T18:30:17.829Z,30.97
2018-11-02T18:32:56.596Z,33.23
2018-11-02T18:35:36.816Z,30.57
2018-11-02T18:38:17.364Z,29.00
2018-11-02T18:40:55.973Z,27.57
2018-11-02T18:49:00.754Z,29.25
2018-11-02T18:51:40.413Z,28.13
2018-11-02T18:54:21.899Z,27.67
2018-11-02T18:57:01.987Z,28.50
2018-11-02T19:02:17.916Z,29.50
2018-11-02T19:04:59.406Z,26.87
2018-11-02T19:07:37.611Z,26.57
2018-11-02T19:10:18.456Z,26.95
2018-11-02T19:12:57.951Z,28.47
2018-11-02T19:18:24.122Z,25.97
2018-11-02T19:21:03.068Z,26.40
2018-11-02T19:23:41.538Z,26.83
2018-11-02T19:28:56.853Z,27.67
2018-11-02T19:31:36.386Z,27.55
2018-11-02T19:36:51.017Z,27.97
2018-11-02T19:39:30.999Z,27.03
2018-11-02T19:42:11.193Z,27.02
2018-11-02T19:44:54.214Z,27.00
2018-11-02T19:50:19.081Z,27.20
2018-11-02T19:52:59.334Z,27.00
2018-11-02T19:55:39.364Z,28.00
2018-11-02T19:58:19.869Z,27.53
2018-11-02T20:00:58.905Z,25.63
2018-11-02T20:06:15.875Z,27.10
2018-11-02T20:08:57.020Z,28.42
2018-11-02T20:14:13.648Z,27.50
2018-11-02T20:16:53.066Z,27.42
2018-11-02T20:19:33.377Z,29.00
2018-11-02T20:22:12.843Z,28.40
2018-11-02T20:24:52.155Z,31.52
2018-11-02T20:27:31.395Z,29.87
2018-11-02T20:30:21.297Z,29.07
2018-11-02T20:33:01.980Z,30.03
2018-11-02T20:35:45.832Z,31.07
2018-11-02T20:38:24.566Z,30.23
2018-11-02T20:41:03.918Z,30.10
2018-11-02T20:43:53.789Z,30.10
2018-11-02T20:46:34.112Z,30.13
2018-11-02T20:51:53.471Z,31.27
2018-11-02T21:00:01.466Z,32.07
2018-11-02T21:02:42.386Z,30.70
2018-11-02T21:07:58.854Z,30.40
2018-11-02T21:10:39.995Z,29.97
2018-11-02T21:15:57.779Z,29.70
2018-11-02T21:21:18.972Z,30.90
2018-11-02T21:26:35.944Z,29.83
2018-11-02T21:29:17.270Z,30.50
2018-11-02T21:31:56.346Z,30.93
2018-11-02T21:37:11.880Z,32.67
2018-11-02T21:39:58.118Z,31.23
2018-11-02T21:42:38.227Z,30.87
2018-11-02T21:45:19.875Z,30.80
2018-11-02T21:48:00.045Z,31.82
2018-11-02T21:50:39.352Z,31.10
2018-11-02T21:53:18.176Z,31.62
2018-11-02T21:55:55.944Z,31.85
2018-11-02T21:58:32.955Z,30.30
2018-11-02T22:01:09.971Z,29.23
2018-11-02T22:03:47.819Z,30.20
2018-11-02T22:06:25.685Z,30.97
2018-11-02T22:09:08.799Z,31.33
2018-11-02T22:11:46.895Z,31.33
2018-11-02T22:14:24.011Z,30.77
2018-11-02T22:17:01.243Z,30.50
2018-11-02T22:19:38.598Z,31.67
2018-11-02T22:22:15.860Z,33.03
2018-11-02T22:24:53.435Z,32.05
2018-11-02T22:27:30.560Z,31.87
2018-11-02T22:30:14.422Z,32.88
2018-11-02T22:32:51.611Z,30.52
2018-11-02T22:35:28.814Z,31.80
2018-11-02T22:38:06.386Z,33.02
2018-11-02T22:40:43.673Z,32.05
2018-11-02T22:43:21.701Z,32.53
2018-11-02T22:45:59.165Z,32.10
2018-11-02T22:48:36.965Z,32.83
2018-11-02T22:51:14.744Z,32.73
2018-11-02T22:53:52.564Z,31.83
2018-11-02T22:56:29.880Z,32.00
2018-11-02T22:59:06.797Z,31.93
2018-11-02T23:01:43.836Z,30.70
2018-11-02T23:04:20.889Z,33.13
2018-11-02T23:07:02.427Z,30.68
2018-11-02T23:09:39.812Z,30.23
2018-11-02T23:14:53.240Z,30.57
2018-11-02T23:17:30.067Z,33.43
2018-11-02T23:20:10.770Z,32.10
2018-11-02T23:22:47.728Z,30.17
2018-11-02T23:25:24.861Z,32.28
2018-11-02T23:28:01.799Z,30.50
2018-11-02T23:30:38.762Z,29.50
2018-11-02T23:33:16.284Z,29.23
2018-11-02T23:35:53.570Z,28.52
2018-11-02T23:38:32.398Z,30.97
2018-11-02T23:41:09.781Z,30.85
2018-11-02T23:43:47.135Z,29.23
2018-11-02T23:49:00.726Z,30.63
2018-11-02T23:51:37.785Z,29.85
2018-11-02T23:54:16.046Z,30.50
2018-11-02T23:56:53.847Z,27.45
2018-11-02T23:59:30.991Z,28.77
